createdAt,value
2018-09-03T00:01:06.281Z,95411.03
2018-09-03T00:03:34.546Z,95401.36
2018-09-03T00:06:02.904Z,95396.73
2018-09-03T00:08:31.195Z,95392.11
2018-09-03T00:10:59.523Z,95398.66
2018-09-03T00:13:27.887Z,95381.03
2018-09-03T00:15:56.201Z,95385.87
2018-09-03T00:18:24.548Z,95373.45
2018-09-03T00:20:52.896Z,95372.86
2018-09-03T00:23:21.316Z,95371.75
2018-09-03T00:25:49.665Z,95369.09
2018-09-03T00:28:18.178Z,95370.03
2018-09-03T00:30:46.610Z,95363.13
2018-09-03T00:33:20.966Z,95358.81
2018-09-03T00:35:54.536Z,95355.31
2018-09-03T00:38:29.306Z,95347.50
2018-09-03T00:41:03.701Z,95341.16
2018-09-03T00:43:37.284Z,95334.94
2018-09-03T00:46:11.279Z,95342.08
2018-09-03T00:48:40.574Z,95341.02
2018-09-03T00:51:08.869Z,95339.70
2018-09-03T00:53:37.154Z,95335.94
2018-09-03T00:56:05.432Z,95344.22
2018-09-03T00:58:33.754Z,95339.62
2018-09-03T01:01:02.071Z,95337.06
2018-09-03T01:03:30.369Z,95327.17
2018-09-03T01:05:58.683Z,95317.39
2018-09-03T01:08:26.985Z,95318.83
2018-09-03T01:10:55.269Z,95309.06
2018-09-03T01:13:23.566Z,95306.39
2018-09-03T01:15:51.827Z,95303.14
2018-09-03T01:18:20.105Z,95301.55
2018-09-03T01:20:48.816Z,95314.77
2018-09-03T01:23:17.269Z,95323.18
2018-09-03T01:25:45.584Z,95323.17
2018-09-03T01:28:13.862Z,95320.52
2018-09-03T01:30:42.150Z,95324.18
2018-09-03T01:33:10.451Z,95341.27
2018-09-03T01:35:38.759Z,95345.93
2018-09-03T01:38:07.064Z,95355.38
2018-09-03T01:40:35.352Z,95362.69
2018-09-03T01:43:03.683Z,95369.37
2018-09-03T01:45:31.990Z,95385.61
2018-09-03T01:48:00.282Z,95380.34
2018-09-03T01:50:28.577Z,95365.47
2018-09-03T01:52:56.846Z,95355.27
2018-09-03T01:55:25.132Z,95355.88
2018-09-03T01:57:53.418Z,95346.44
2018-09-03T02:00:21.675Z,95345.59
2018-09-03T02:02:50.005Z,95341.21
2018-09-03T02:07:52.724Z,95336.20
2018-09-03T02:10:21.032Z,95332.22
2018-09-03T02:12:49.305Z,95336.82
2018-09-03T02:15:17.596Z,95337.69
2018-09-03T02:17:45.871Z,95345.94
2018-09-03T02:20:14.162Z,95342.92
2018-09-03T02:22:42.448Z,95334.14
2018-09-03T02:25:10.738Z,95329.84
2018-09-03T02:27:39.010Z,95344.08
2018-09-03T02:30:07.352Z,95336.76
2018-09-03T02:32:35.642Z,95337.69
2018-09-03T02:35:03.932Z,95335.21
2018-09-03T02:37:32.195Z,95327.36
2018-09-03T02:40:00.459Z,95317.59
2018-09-03T02:42:28.740Z,95331.42
2018-09-03T02:44:57.008Z,95319.23
2018-09-03T02:47:25.303Z,95316.11
2018-09-03T02:49:53.581Z,95317.20
2018-09-03T02:52:21.916Z,95315.84
2018-09-03T02:54:51.214Z,95316.77
2018-09-03T02:57:19.592Z,95303.16
2018-09-03T02:59:47.906Z,95297.34
2018-09-03T03:02:16.217Z,95297.88
2018-09-03T03:04:44.503Z,95300.27
2018-09-03T03:07:12.835Z,95291.41
2018-09-03T03:09:41.139Z,95293.63
2018-09-03T03:12:09.470Z,95298.27
2018-09-03T03:14:37.798Z,95288.75
2018-09-03T03:17:06.235Z,95284.49
2018-09-03T03:19:34.546Z,95283.38
2018-09-03T03:22:02.850Z,95275.78
2018-09-03T03:24:31.134Z,95281.45
2018-09-03T03:26:59.496Z,95278.61
2018-09-03T03:29:27.772Z,95274.16
2018-09-03T03:31:56.068Z,95270.60
2018-09-03T03:34:24.338Z,95268.27
2018-09-03T03:36:52.639Z,95267.56
2018-09-03T03:39:20.891Z,95259.08
2018-09-03T03:41:49.195Z,95258.80
2018-09-03T03:44:17.515Z,95250.83
2018-09-03T03:46:45.854Z,95249.19
2018-09-03T03:49:14.148Z,95256.06
2018-09-03T03:51:42.430Z,95261.66
2018-09-03T03:54:10.728Z,95258.50
2018-09-03T03:56:39.055Z,95255.00
2018-09-03T03:59:07.370Z,95252.28
2018-09-03T04:01:35.714Z,95249.45
2018-09-03T04:04:04.025Z,95247.48
2018-09-03T04:06:32.339Z,95245.41
2018-09-03T04:09:00.758Z,95239.81
2018-09-03T04:11:29.126Z,95247.56
2018-09-03T04:13:57.435Z,95234.39
2018-09-03T04:16:25.825Z,95227.70
2018-09-03T04:18:54.331Z,95240.29
2018-09-03T04:21:22.657Z,95230.98
2018-09-03T04:23:50.936Z,95238.70
2018-09-03T04:26:19.399Z,95244.61
2018-09-03T04:28:47.756Z,95246.31
2018-09-03T04:31:16.014Z,95235.78
2018-09-03T04:33:44.303Z,95226.62
2018-09-03T04:36:12.600Z,95232.91
2018-09-03T04:38:40.933Z,95235.30
2018-09-03T04:41:09.231Z,95230.25
2018-09-03T04:43:37.590Z,95225.78
2018-09-03T04:46:05.899Z,95233.69
2018-09-03T04:48:34.187Z,95233.00
2018-09-03T04:51:02.476Z,95236.02
2018-09-03T04:53:30.758Z,95231.30
2018-09-03T04:55:59.088Z,95231.28
2018-09-03T04:58:33.735Z,95227.78
2018-09-03T05:01:02.090Z,95234.78
2018-09-03T05:03:30.420Z,95224.07
2018-09-03T05:05:58.743Z,95215.14
2018-09-03T05:08:27.075Z,95216.38
2018-09-03T05:10:55.405Z,95219.03
2018-09-03T05:13:23.730Z,95228.41
2018-09-03T05:15:52.037Z,95232.35
2018-09-03T05:18:20.516Z,95234.14
2018-09-03T05:20:48.845Z,95228.72
2018-09-03T05:23:17.154Z,95231.80
2018-09-03T05:25:45.498Z,95226.48
2018-09-03T05:28:13.868Z,95235.45
2018-09-03T05:30:42.234Z,95225.76
2018-09-03T05:33:10.616Z,95226.78
2018-09-03T05:35:39.158Z,95216.94
2018-09-03T05:38:07.583Z,95226.01
2018-09-03T05:40:35.859Z,95234.97
2018-09-03T05:43:04.249Z,95232.66
2018-09-03T05:45:32.561Z,95237.86
2018-09-03T05:48:00.908Z,95236.06
2018-09-03T05:50:29.470Z,95239.42
2018-09-03T05:52:59.131Z,95242.29
2018-09-03T05:55:27.571Z,95250.73
2018-09-03T05:57:55.906Z,95252.52
2018-09-03T06:00:24.333Z,95243.14
2018-09-03T06:02:55.077Z,95235.69
2018-09-03T06:05:23.893Z,95229.73
2018-09-03T06:07:52.236Z,95236.55
2018-09-03T06:10:20.839Z,95232.73
2018-09-03T06:12:49.501Z,95218.89
2018-09-03T06:15:19.731Z,95232.41
2018-09-03T06:17:48.191Z,95231.31
2018-09-03T06:20:16.758Z,95232.74
2018-09-03T06:22:45.445Z,95224.29
2018-09-03T06:25:14.362Z,95227.27
2018-09-03T06:27:44.360Z,95228.67
2018-09-03T06:30:13.483Z,95223.28
2018-09-03T06:32:41.988Z,95227.40
2018-09-03T06:35:10.643Z,95233.85
2018-09-03T06:37:38.977Z,95231.02
2018-09-03T06:40:07.282Z,95238.95
2018-09-03T06:42:35.586Z,95239.97
2018-09-03T06:45:03.994Z,95230.11
2018-09-03T06:47:32.284Z,95225.05
2018-09-03T06:50:00.559Z,95218.78
2018-09-03T06:52:28.987Z,95219.64
2018-09-03T06:54:58.423Z,95214.61
2018-09-03T06:57:27.232Z,95210.44
2018-09-03T06:59:55.788Z,95210.11
2018-09-03T07:02:24.136Z,95219.28
2018-09-03T07:04:52.552Z,95213.98
2018-09-03T07:07:20.844Z,95214.22
2018-09-03T07:09:49.116Z,95214.52
2018-09-03T07:12:17.393Z,95218.23
2018-09-03T07:14:45.730Z,95215.52
2018-09-03T07:17:15.894Z,95216.63
2018-09-03T07:19:44.605Z,95213.06
2018-09-03T07:22:13.243Z,95215.89
2018-09-03T07:24:41.584Z,95214.41
2018-09-03T07:27:10.350Z,95221.73
2018-09-03T07:29:38.639Z,95212.73
2018-09-03T07:32:06.990Z,95215.36
2018-09-03T07:34:41.989Z,95212.87
2018-09-03T07:37:10.625Z,95208.56
2018-09-03T07:39:38.941Z,95207.00
2018-09-03T07:42:07.390Z,95205.07
2018-09-03T07:44:35.681Z,95202.80
2018-09-03T07:47:04.040Z,95206.77
2018-09-03T07:49:32.521Z,95200.56
2018-09-03T07:52:00.842Z,95198.63
2018-09-03T07:54:29.205Z,95207.31
2018-09-03T07:56:57.624Z,95209.68
2018-09-03T07:59:25.905Z,95213.23
2018-09-03T08:01:54.179Z,95217.30
2018-09-03T08:04:22.453Z,95214.84
2018-09-03T08:06:50.731Z,95211.05
2018-09-03T08:09:19.038Z,95210.94
2018-09-03T08:11:47.334Z,95215.43
2018-09-03T08:14:15.735Z,95214.88
2018-09-03T08:16:44.057Z,95211.20
2018-09-03T08:19:12.403Z,95210.94
2018-09-03T08:21:40.703Z,95212.36
2018-09-03T08:24:09.023Z,95217.52
2018-09-03T08:26:37.408Z,95218.34
2018-09-03T08:29:05.745Z,95211.33
2018-09-03T08:31:34.028Z,95210.02
2018-09-03T08:34:02.336Z,95215.40
2018-09-03T08:36:36.959Z,95212.50
2018-09-03T08:39:06.484Z,95220.28
2018-09-03T08:41:34.819Z,95213.47
2018-09-03T08:44:03.137Z,95219.50
2018-09-03T08:46:31.521Z,95221.48
2018-09-03T08:48:59.922Z,95211.45
2018-09-03T08:51:28.327Z,95206.34
2018-09-03T08:53:56.782Z,95205.51
2018-09-03T08:56:25.143Z,95207.73
2018-09-03T08:58:53.647Z,95205.16
2018-09-03T09:01:22.083Z,95213.72
2018-09-03T09:03:50.687Z,95217.19
2018-09-03T09:06:19.026Z,95217.43
2018-09-03T09:08:47.398Z,95212.81
2018-09-03T09:11:15.688Z,95209.96
2018-09-03T09:13:44.066Z,95211.30
2018-09-03T09:16:12.510Z,95221.56
2018-09-03T09:18:40.717Z,95218.87
2018-09-03T09:21:08.999Z,95213.61
2018-09-03T09:23:37.300Z,95208.34
2018-09-03T09:26:05.739Z,95203.06
2018-09-03T09:28:34.127Z,95204.08
2018-09-03T09:31:02.471Z,95213.80
2018-09-03T09:33:30.736Z,95213.98
2018-09-03T09:35:58.948Z,95219.28
2018-09-03T09:38:27.223Z,95224.16
2018-09-03T09:40:55.519Z,95216.70
2018-09-03T09:43:23.827Z,95224.67
2018-09-03T09:45:52.121Z,95219.51
2018-09-03T09:48:20.443Z,95225.69
2018-09-03T09:50:48.734Z,95216.33
2018-09-03T09:53:17.031Z,95221.42
2018-09-03T09:55:45.340Z,95216.62
2018-09-03T09:58:13.665Z,95222.59
2018-09-03T10:00:47.316Z,95222.52
2018-09-03T10:03:15.620Z,95228.64
2018-09-03T10:05:43.901Z,95228.58
2018-09-03T10:08:12.251Z,95222.96
2018-09-03T10:10:41.511Z,95220.19
2018-09-03T10:13:09.837Z,95213.59
2018-09-03T10:15:38.124Z,95211.91
2018-09-03T10:18:12.993Z,95203.48
2018-09-03T10:20:41.290Z,95198.14
2018-09-03T10:23:09.719Z,95194.06
2018-09-03T10:25:38.561Z,95191.76
2018-09-03T10:28:07.100Z,95188.68
2018-09-03T10:30:35.376Z,95185.69
2018-09-03T10:33:03.659Z,95184.09
2018-09-03T10:35:32.195Z,95182.08
2018-09-03T10:38:00.570Z,95170.73
2018-09-03T10:40:28.782Z,95166.58
2018-09-03T10:42:57.311Z,95163.58
2018-09-03T10:45:25.783Z,95162.11
2018-09-03T10:47:54.098Z,95162.52
2018-09-03T10:50:22.370Z,95166.26
2018-09-03T10:52:50.720Z,95167.55
2018-09-03T10:55:18.996Z,95167.69
2018-09-03T10:57:47.267Z,95167.42
2018-09-03T11:00:15.555Z,95160.67
2018-09-03T11:02:43.813Z,95155.59
2018-09-03T11:05:12.118Z,95158.62
2018-09-03T11:07:40.347Z,95162.81
2018-09-03T11:10:08.638Z,95160.20
2018-09-03T11:12:36.906Z,95162.09
2018-09-03T11:15:05.591Z,95168.94
2018-09-03T11:17:33.887Z,95168.94
2018-09-03T11:20:03.474Z,95169.27
2018-09-03T11:22:31.782Z,95168.92
2018-09-03T11:25:00.344Z,95170.91
2018-09-03T11:27:28.650Z,95177.34
2018-09-03T11:29:56.974Z,95169.50
2018-09-03T11:32:25.269Z,95166.08
2018-09-03T11:34:53.565Z,95161.31
2018-09-03T11:37:21.818Z,95165.55
2018-09-03T11:39:50.135Z,95165.03
2018-09-03T11:42:18.397Z,95171.67
2018-09-03T11:44:46.702Z,95159.78
2018-09-03T11:47:15.028Z,95159.78
2018-09-03T11:49:43.347Z,95161.83
2018-09-03T11:52:11.621Z,95156.84
2018-09-03T11:54:39.934Z,95161.24
2018-09-03T11:57:08.295Z,95161.34
2018-09-03T11:59:36.562Z,95155.34
2018-09-03T12:02:05.240Z,95161.44
2018-09-03T12:04:33.516Z,95155.13
2018-09-03T12:07:01.829Z,95153.80
2018-09-03T12:09:30.130Z,95153.37
2018-09-03T12:11:58.432Z,95145.33
2018-09-03T12:14:29.119Z,95145.56
2018-09-03T12:16:57.551Z,95142.09
2018-09-03T12:19:25.841Z,95138.20
2018-09-03T12:21:54.141Z,95139.78
2018-09-03T12:24:22.443Z,95138.08
2018-09-03T12:26:50.730Z,95140.81
2018-09-03T12:29:19.018Z,95141.09
2018-09-03T12:31:47.398Z,95136.19
2018-09-03T12:34:15.689Z,95141.70
2018-09-03T12:36:43.982Z,95142.45
2018-09-03T12:39:12.301Z,95138.52
2018-09-03T12:41:40.622Z,95140.58
2018-09-03T12:44:08.927Z,95140.86
2018-09-03T12:46:37.197Z,95139.81
2018-09-03T12:49:12.130Z,95139.07
2018-09-03T12:51:41.390Z,95139.58
2018-09-03T12:54:09.674Z,95140.27
2018-09-03T12:56:37.993Z,95143.61
2018-09-03T12:59:06.337Z,95146.77
2018-09-03T13:01:34.638Z,95150.41
2018-09-03T13:04:02.935Z,95154.48
2018-09-03T13:06:31.324Z,95156.69
2018-09-03T13:08:59.597Z,95153.37
2018-09-03T13:11:27.864Z,95152.86
2018-09-03T13:13:56.135Z,95149.41
2018-09-03T13:16:24.423Z,95143.16
2018-09-03T13:18:52.757Z,95150.73
2018-09-03T13:21:22.107Z,95143.46
2018-09-03T13:23:50.374Z,95140.92
2018-09-03T13:26:18.669Z,95141.80
2018-09-03T13:28:46.937Z,95134.59
2018-09-03T13:31:17.192Z,95134.49
2018-09-03T13:33:45.446Z,95134.59
2018-09-03T13:36:13.820Z,95134.72
2018-09-03T13:38:42.016Z,95130.41
2018-09-03T13:41:10.335Z,95131.08
2018-09-03T13:43:38.756Z,95134.51
2018-09-03T13:46:08.023Z,95130.09
2018-09-03T13:48:36.308Z,95135.39
2018-09-03T13:51:04.595Z,95135.96
2018-09-03T13:53:32.858Z,95137.06
2018-09-03T13:56:01.162Z,95136.60
2018-09-03T13:58:29.454Z,95140.81
2018-09-03T14:00:57.793Z,95135.92
2018-09-03T14:03:26.069Z,95137.73
2018-09-03T14:05:54.330Z,95147.41
2018-09-03T14:08:22.670Z,95136.58
2018-09-03T14:10:50.951Z,95129.12
2018-09-03T14:13:19.248Z,95132.41
2018-09-03T14:15:47.587Z,95131.69
2018-09-03T14:18:15.813Z,95135.26
2018-09-03T14:20:46.626Z,95139.25
2018-09-03T14:23:14.906Z,95136.09
2018-09-03T14:25:43.287Z,95139.93
2018-09-03T14:28:11.608Z,95130.31
2018-09-03T14:30:39.905Z,95128.20
2018-09-03T14:33:08.194Z,95121.14
2018-09-03T14:35:36.476Z,95127.34
2018-09-03T14:38:04.751Z,95128.45
2018-09-03T14:40:33.045Z,95122.78
2018-09-03T14:43:01.429Z,95124.88
2018-09-03T14:45:29.666Z,95131.77
2018-09-03T14:47:57.975Z,95124.25
2018-09-03T14:50:26.264Z,95128.00
2018-09-03T14:52:55.580Z,95132.66
2018-09-03T14:55:23.904Z,95134.18
2018-09-03T14:57:52.210Z,95130.00
2018-09-03T15:00:20.499Z,95135.63
2018-09-03T15:02:48.921Z,95142.34
2018-09-03T15:05:17.227Z,95138.03
2018-09-03T15:07:45.557Z,95144.56
2018-09-03T15:10:13.835Z,95144.01
2018-09-03T15:12:42.336Z,95143.38
2018-09-03T15:15:10.662Z,95143.78
2018-09-03T15:20:13.410Z,95141.58
2018-09-03T15:22:41.813Z,95142.02
2018-09-03T15:25:10.195Z,95140.53
2018-09-03T15:27:38.727Z,95134.07
2018-09-03T15:30:07.085Z,95146.45
2018-09-03T15:32:35.481Z,95147.89
2018-09-03T15:35:03.794Z,95144.30
2018-09-03T15:37:33.926Z,95147.64
2018-09-03T15:40:07.431Z,95148.29
2018-09-03T15:42:36.242Z,95146.08
2018-09-03T15:45:04.598Z,95147.61
2018-09-03T15:47:32.976Z,95144.56
2018-09-03T15:50:01.284Z,95149.86
2018-09-03T15:52:29.594Z,95152.75
2018-09-03T15:54:57.896Z,95147.60
2018-09-03T15:57:26.192Z,95151.21
2018-09-03T15:59:54.467Z,95155.70
2018-09-03T16:02:22.774Z,95151.16
2018-09-03T16:04:51.069Z,95159.11
2018-09-03T16:07:19.330Z,95147.20
2018-09-03T16:09:47.595Z,95147.03
2018-09-03T16:12:15.857Z,95148.59
2018-09-03T16:14:44.154Z,95150.06
2018-09-03T16:17:12.465Z,95152.72
2018-09-03T16:19:40.765Z,95147.05
2018-09-03T16:22:09.312Z,95148.14
2018-09-03T16:24:37.582Z,95147.69
2018-09-03T16:27:05.843Z,95143.45
2018-09-03T16:29:34.134Z,95146.78
2018-09-03T16:32:02.377Z,95140.20
2018-09-03T16:34:30.690Z,95132.62
2018-09-03T16:36:59.070Z,95136.64
2018-09-03T16:39:27.536Z,95134.68
2018-09-03T16:41:55.928Z,95130.58
2018-09-03T16:44:24.346Z,95121.63
2018-09-03T16:46:52.814Z,95122.31
2018-09-03T16:49:21.212Z,95117.61
2018-09-03T16:51:49.779Z,95112.52
2018-09-03T16:54:18.187Z,95121.23
2018-09-03T16:56:46.627Z,95116.53
2018-09-03T16:59:15.007Z,95122.39
2018-09-03T17:01:43.398Z,95119.78
2018-09-03T17:04:11.854Z,95115.08
2018-09-03T17:06:40.213Z,95120.27
2018-09-03T17:09:08.650Z,95116.36
2018-09-03T17:11:37.118Z,95124.16
2018-09-03T17:14:05.935Z,95118.62
2018-09-03T17:16:34.351Z,95118.74
2018-09-03T17:19:02.786Z,95116.88
2018-09-03T17:21:31.355Z,95115.48
2018-09-03T17:24:00.064Z,95111.74
2018-09-03T17:26:28.474Z,95116.33
2018-09-03T17:28:56.955Z,95109.88
2018-09-03T17:31:25.359Z,95116.48
2018-09-03T17:33:53.899Z,95118.34
2018-09-03T17:36:22.360Z,95110.66
2018-09-03T17:38:50.759Z,95111.68
2018-09-03T17:41:19.249Z,95111.56
2018-09-03T17:43:47.667Z,95114.12
2018-09-03T17:46:16.088Z,95119.98
2018-09-03T17:48:44.516Z,95124.47
2018-09-03T17:51:13.060Z,95129.34
2018-09-03T17:53:41.544Z,95121.08
2018-09-03T17:56:10.332Z,95122.65
2018-09-03T17:58:38.865Z,95127.94
2018-09-03T18:01:07.342Z,95125.66
2018-09-03T18:03:35.778Z,95127.05
2018-09-03T18:06:04.176Z,95131.50
2018-09-03T18:08:32.656Z,95138.21
2018-09-03T18:11:01.082Z,95135.08
2018-09-03T18:13:29.514Z,95131.52
2018-09-03T18:15:57.897Z,95127.56
2018-09-03T18:18:27.407Z,95128.71
2018-09-03T18:20:56.553Z,95123.89
2018-09-03T18:23:24.930Z,95127.83
2018-09-03T18:25:53.355Z,95121.20
2018-09-03T18:28:21.692Z,95124.43
2018-09-03T18:30:50.111Z,95121.20
2018-09-03T18:33:18.440Z,95125.75
2018-09-03T18:35:46.817Z,95121.75
2018-09-03T18:38:15.138Z,95116.25
2018-09-03T18:40:43.502Z,95119.20
2018-09-03T18:43:12.136Z,95116.56
2018-09-03T18:45:41.443Z,95116.48
2018-09-03T18:48:09.833Z,95118.18
2018-09-03T18:50:38.214Z,95123.13
2018-09-03T18:53:06.572Z,95129.03
2018-09-03T18:55:35.997Z,95137.05
2018-09-03T18:58:11.250Z,95131.51
2018-09-03T19:00:39.547Z,95136.84
2018-09-03T19:03:07.883Z,95140.40
2018-09-03T19:05:36.286Z,95134.91
2018-09-03T19:08:04.655Z,95136.13
2018-09-03T19:10:33.044Z,95136.61
2018-09-03T19:13:01.422Z,95137.77
2018-09-03T19:15:29.821Z,95134.41
2018-09-03T19:17:58.186Z,95139.45
2018-09-03T19:20:29.287Z,95135.50
2018-09-03T19:22:57.534Z,95143.45
2018-09-03T19:25:25.800Z,95148.53
2018-09-03T19:27:54.073Z,95143.11
2018-09-03T19:30:22.373Z,95154.77
2018-09-03T19:32:50.754Z,95149.69
2018-09-03T19:35:19.042Z,95146.16
2018-09-03T19:37:47.397Z,95143.88
2018-09-03T19:40:15.811Z,95142.19
2018-09-03T19:42:44.279Z,95142.04
2018-09-03T19:45:12.794Z,95134.95
2018-09-03T19:47:41.162Z,95132.69
2018-09-03T19:50:09.583Z,95140.48
2018-09-03T19:52:38.043Z,95139.92
2018-09-03T19:55:06.439Z,95130.19
2018-09-03T19:57:34.913Z,95136.43
2018-09-03T20:00:03.386Z,95138.81
2018-09-03T20:02:31.784Z,95136.21
2018-09-03T20:05:00.179Z,95138.67
2018-09-03T20:07:28.615Z,95130.59
2018-09-03T20:09:57.034Z,95137.47
2018-09-03T20:12:25.483Z,95136.75
2018-09-03T20:15:13.918Z,95133.02
2018-09-03T20:17:42.218Z,95138.47
2018-09-03T20:20:10.491Z,95137.53
2018-09-03T20:22:38.891Z,95141.12
2018-09-03T20:25:07.391Z,95143.88
2018-09-03T20:27:35.671Z,95151.39
2018-09-03T20:30:03.923Z,95149.90
2018-09-03T20:32:32.199Z,95149.90
2018-09-03T20:35:00.525Z,95148.31
2018-09-03T20:37:28.794Z,95157.15
2018-09-03T20:39:57.083Z,95156.40
2018-09-03T20:42:26.621Z,95144.84
2018-09-03T20:44:55.355Z,95151.49
2018-09-03T20:47:23.694Z,95148.31
2018-09-03T20:49:52.067Z,95148.46
2018-09-03T20:52:20.572Z,95144.58
2018-09-03T20:54:49.058Z,95145.52
2018-09-03T20:57:17.389Z,95143.16
2018-09-03T20:59:45.657Z,95146.31
2018-09-03T21:02:13.914Z,95149.59
2018-09-03T21:04:42.184Z,95150.07
2018-09-03T21:07:10.442Z,95151.92
2018-09-03T21:09:39.086Z,95146.27
2018-09-03T21:12:07.370Z,95144.03
2018-09-03T21:14:35.676Z,95145.00
2018-09-03T21:17:03.910Z,95139.83
2018-09-03T21:19:32.188Z,95146.03
2018-09-03T21:22:00.562Z,95142.60
2018-09-03T21:24:28.797Z,95140.97
2018-09-03T21:26:57.110Z,95144.95
2018-09-03T21:29:25.456Z,95143.45
2018-09-03T21:31:53.754Z,95140.38
2018-09-03T21:34:22.054Z,95136.95
2018-09-03T21:36:50.386Z,95137.27
2018-09-03T21:39:18.713Z,95141.41
2018-09-03T21:41:46.982Z,95139.39
2018-09-03T21:44:15.262Z,95137.89
2018-09-03T21:46:43.600Z,95142.03
2018-09-03T21:49:11.846Z,95147.77
2018-09-03T21:51:40.146Z,95145.90
2018-09-03T21:54:08.411Z,95145.23
2018-09-03T21:56:37.263Z,95146.74
2018-09-03T21:59:05.554Z,95146.20
2018-09-03T22:01:33.834Z,95147.53
2018-09-03T22:04:02.126Z,95143.14
2018-09-03T22:06:31.751Z,95142.25
2018-09-03T22:09:00.403Z,95140.83
2018-09-03T22:11:28.718Z,95139.33
2018-09-03T22:13:57.011Z,95135.28
2018-09-03T22:16:25.286Z,95139.60
2018-09-03T22:18:53.547Z,95136.25
2018-09-03T22:21:21.827Z,95134.51
2018-09-03T22:23:50.123Z,95133.34
2018-09-03T22:26:18.394Z,95132.04
2018-09-03T22:28:46.695Z,95127.56
2018-09-03T22:31:14.971Z,95128.45
2018-09-03T22:33:43.242Z,95131.34
2018-09-03T22:36:11.509Z,95130.77
2018-09-03T22:38:39.794Z,95123.82
2018-09-03T22:41:08.054Z,95130.87
2018-09-03T22:43:36.343Z,95127.86
2018-09-03T22:46:04.626Z,95124.51
2018-09-03T22:48:32.957Z,95126.90
2018-09-03T22:51:01.231Z,95124.00
2018-09-03T22:53:29.512Z,95126.92
2018-09-03T22:55:57.786Z,95121.01
2018-09-03T22:58:26.061Z,95121.01
2018-09-03T23:00:54.634Z,95121.58
2018-09-03T23:03:23.263Z,95111.00
2018-09-03T23:05:51.903Z,95112.09
2018-09-03T23:08:20.639Z,95115.26
2018-09-03T23:10:49.206Z,95113.22
2018-09-03T23:13:17.830Z,95112.51
2018-09-03T23:15:51.864Z,95106.35
2018-09-03T23:18:21.060Z,95108.31
2018-09-03T23:20:49.686Z,95103.20
2018-09-03T23:23:18.340Z,95108.95
2018-09-03T23:25:47.570Z,95109.45
2018-09-03T23:28:16.271Z,95111.67
2018-09-03T23:30:44.890Z,95106.95
2018-09-03T23:33:13.495Z,95105.17
2018-09-03T23:35:42.080Z,95098.36
2018-09-03T23:38:10.657Z,95104.00
2018-09-03T23:40:39.467Z,95105.83
2018-09-03T23:43:08.035Z,95103.15
2018-09-03T23:45:36.730Z,95108.55
2018-09-03T23:48:05.472Z,95103.06
2018-09-03T23:50:34.058Z,95106.88
2018-09-03T23:53:02.643Z,95107.30
2018-09-03T23:55:31.213Z,95101.56
2018-09-03T23:57:59.950Z,95107.94
